Time,TemperatureF,DewpointF,PressureIn,WindDirection,WindDirectionDegrees,WindSpeedMPH,WindSpeedGustMPH,Humidity,HourlyPrecipIn,Conditions,Clouds,dailyrainin,SoftwareType,DateUTC
2013-04-21 00:03:00,34.7,31.0,30.36,SW,222,1.0,1.0,86,0.00,,---,0.00,VWS V14.00,2013-04-21 05:03:00,
2013-04-21 00:08:00,34.7,31.0,30.36,SW,222,2.0,2.0,86,0.00,,---,0.00,VWS V14.00,2013-04-21 05:08:00,
2013-04-21 00:13:00,34.9,31.4,30.36,SW,217,2.0,4.0,87,0.00,,---,0.00,VWS V14.00,2013-04-21 05:13:00,
2013-04-21 00:18:00,34.9,31.4,30.36,SW,217,1.0,3.0,87,0.00,,---,0.00,VWS V14.00,2013-04-21 05:18:00,
2013-04-21 00:23:00,34.7,31.2,30.36,SW,217,1.0,1.0,87,0.00,,---,0.00,VWS V14.00,2013-04-21 05:23:00,
2013-04-21 00:28:00,34.6,31.1,30.36,SW,217,5.0,5.0,87,0.00,,---,0.00,VWS V14.00,2013-04-21 05:28:00,
2013-04-21 00:34:00,34.7,31.2,30.36,SW,215,1.0,3.0,87,0.00,,---,0.00,VWS V14.00,2013-04-21 05:34:00,
2013-04-21 00:39:00,34.7,31.2,30.36,SSW,211,1.0,3.0,87,0.00,,---,0.00,VWS V14.00,2013-04-21 05:39:00,
2013-04-21 00:44:00,34.7,31.0,30.36,SSW,211,2.0,3.0,86,0.00,,---,0.00,VWS V14.00,2013-04-21 05:44:00,
2013-04-21 00:49:00,34.6,30.9,30.36,SSW,211,1.0,1.0,86,0.00,,---,0.00,VWS V14.00,2013-04-21 05:49:00,
2013-04-21 00:54:00,34.4,30.6,30.36,SSW,211,0.0,1.0,86,0.00,,---,0.00,VWS V14.00,2013-04-21 05:54:00,
2013-04-21 00:59:00,34.3,30.6,30.36,SSW,211,1.0,1.0,86,0.00,,---,0.00,VWS V14.00,2013-04-21 05:59:00,
2013-04-21 01:04:00,34.1,30.4,30.37,SSW,211,1.0,1.0,86,0.00,,---,0.00,VWS V14.00,2013-04-21 06:04:00,
2013-04-21 01:09:00,34.0,30.3,30.37,SSW,211,0.0,0.0,86,0.00,,---,0.00,VWS V14.00,2013-04-21 06:09:00,
2013-04-21 01:14:00,33.8,30.1,30.37,SSW,211,1.0,2.0,86,0.00,,---,0.00,VWS V14.00,2013-04-21 06:14:00,
2013-04-21 01:20:00,33.8,30.4,30.37,SSW,211,0.0,0.0,87,0.00,,---,0.00,VWS V14.00,2013-04-21 06:20:00,
2013-04-21 01:25:00,33.7,30.2,30.37,SSW,211,0.0,0.0,87,0.00,,---,0.00,VWS V14.00,2013-04-21 06:25:00,
2013-04-21 01:30:00,33.5,30.0,30.37,SSW,211,0.0,0.0,87,0.00,,---,0.00,VWS V14.00,2013-04-21 06:30:00,
2013-04-21 01:35:00,33.5,30.0,30.38,SSW,211,0.0,0.0,87,0.00,,---,0.00,VWS V14.00,2013-04-21 06:35:00,
2013-04-21 01:40:00,33.7,30.2,30.38,SSW,208,1.0,2.0,87,0.00,,---,0.00,VWS V14.00,2013-04-21 06:40:00,
2013-04-21 01:45:00,33.5,30.0,30.38,SSW,208,1.0,1.0,87,0.00,,---,0.00,VWS V14.00,2013-04-21 06:45:00,
2013-04-21 01:50:00,33.4,30.0,30.38,SSW,208,0.0,1.0,87,0.00,,---,0.00,VWS V14.00,2013-04-21 06:50:00,
2013-04-21 01:55:00,33.2,29.8,30.38,SSW,208,0.0,0.0,87,0.00,,---,0.00,VWS V14.00,2013-04-21 06:55:00,
2013-04-21 02:01:00,33.1,29.7,30.38,SSW,208,0.0,1.0,87,0.00,,---,0.00,VWS V14.00,2013-04-21 07:01:00,
2013-04-21 02:06:00,32.9,29.5,30.38,SSW,208,1.0,2.0,87,0.00,,---,0.00,VWS V14.00,2013-04-21 07:06:00,
2013-04-21 02:11:00,32.9,29.5,30.38,SSW,208,0.0,2.0,87,0.00,,---,0.00,VWS V14.00,2013-04-21 07:11:00,
2013-04-21 02:16:00,32.7,29.3,30.38,SSW,208,0.0,0.0,87,0.00,,---,0.00,VWS V14.00,2013-04-21 07:16:00,
2013-04-21 02:21:00,32.5,29.1,30.38,SSW,208,0.0,0.0,87,0.00,,---,0.00,VWS V14.00,2013-04-21 07:21:00,
2013-04-21 02:26:00,32.4,29.0,30.38,SSW,208,0.0,0.0,87,0.00,,---,0.00,VWS V14.00,2013-04-21 07:26:00,
2013-04-21 02:31:00,32.4,29.2,30.38,SSW,208,0.0,0.0,88,0.00,,---,0.00,VWS V14.00,2013-04-21 07:31:00,
2013-04-21 02:36:00,32.5,29.4,30.38,SSW,207,4.0,5.0,88,0.00,,---,0.00,VWS V14.00,2013-04-21 07:36:00,
2013-04-21 02:41:00,32.8,29.6,30.38,SSW,205,1.0,2.0,88,0.00,,---,0.00,VWS V14.00,2013-04-21 07:41:00,
2013-04-21 02:47:00,32.7,29.5,30.38,SSW,205,0.0,0.0,88,0.00,,---,0.00,VWS V14.00,2013-04-21 07:47:00,
2013-04-21 02:52:00,32.4,29.2,30.38,SSW,205,0.0,1.0,88,0.00,,---,0.00,VWS V14.00,2013-04-21 07:52:00,
2013-04-21 02:57:00,32.4,29.2,30.38,SSW,205,0.0,0.0,88,0.00,,---,0.00,VWS V14.00,2013-04-21 07:57:00,
2013-04-21 03:02:00,32.4,29.2,30.38,SSW,205,0.0,0.0,88,0.00,,---,0.00,VWS V14.00,2013-04-21 08:02:00,
2013-04-21 03:07:00,32.2,29.3,30.38,SSW,205,0.0,2.0,89,0.00,,---,0.00,VWS V14.00,2013-04-21 08:07:00,
2013-04-21 03:12:00,32.2,29.3,30.38,SSW,205,1.0,1.0,89,0.00,,---,0.00,VWS V14.00,2013-04-21 08:12:00,
2013-04-21 03:17:00,32.1,29.2,30.38,SSW,205,0.0,0.0,89,0.00,,---,0.00,VWS V14.00,2013-04-21 08:17:00,
2013-04-21 03:22:00,31.9,29.0,30.38,SSW,205,0.0,0.0,89,0.00,,---,0.00,VWS V14.00,2013-04-21 08:22:00,
2013-04-21 03:27:00,31.9,29.0,30.38,SSW,205,0.0,0.0,89,0.00,,---,0.00,VWS V14.00,2013-04-21 08:27:00,
2013-04-21 03:32:00,31.8,28.9,30.38,SSW,205,0.0,0.0,89,0.00,,---,0.00,VWS V14.00,2013-04-21 08:32:00,
2013-04-21 03:37:00,31.6,28.7,30.38,SSW,205,0.0,1.0,89,0.00,,---,0.00,VWS V14.00,2013-04-21 08:37:00,
2013-04-21 03:42:00,31.8,28.9,30.38,SSW,205,0.0,1.0,89,0.00,,---,0.00,VWS V14.00,2013-04-21 08:42:00,
2013-04-21 03:47:00,31.8,28.9,30.39,SSW,205,0.0,2.0,89,0.00,,---,0.00,VWS V14.00,2013-04-21 08:47:00,
2013-04-21 03:53:00,31.9,29.3,30.39,SSW,205,1.0,3.0,90,0.00,,---,0.00,VWS V14.00,2013-04-21 08:53:00,
2013-04-21 03:58:00,32.1,29.5,30.39,SSW,205,0.0,0.0,90,0.00,,---,0.00,VWS V14.00,2013-04-21 08:58:00,
2013-04-21 04:03:00,32.2,29.6,30.39,SSW,205,1.0,2.0,90,0.00,,---,0.00,VWS V14.00,2013-04-21 09:03:00,
2013-04-21 04:08:00,32.2,29.6,30.39,SSW,205,1.0,1.0,90,0.00,,---,0.00,VWS V14.00,2013-04-21 09:08:00,
2013-04-21 04:13:00,32.2,29.6,30.39,SSW,205,0.0,1.0,90,0.00,,---,0.00,VWS V14.00,2013-04-21 09:13:00,
2013-04-21 04:18:00,32.2,29.6,30.39,SSW,205,0.0,0.0,90,0.00,,---,0.00,VWS V14.00,2013-04-21 09:18:00,
2013-04-21 04:23:00,32.2,29.6,30.39,SSW,205,0.0,0.0,90,0.00,,---,0.00,VWS V14.00,2013-04-21 09:23:00,
2013-04-21 04:28:00,32.2,29.6,30.39,SSW,205,0.0,0.0,90,0.00,,---,0.00,VWS V14.00,2013-04-21 09:28:00,
2013-04-21 04:33:00,32.2,29.6,30.38,SSW,205,0.0,0.0,90,0.00,,---,0.00,VWS V14.00,2013-04-21 09:33:00,
2013-04-21 04:38:00,32.2,29.6,30.38,SSW,205,0.0,0.0,90,0.00,,---,0.00,VWS V14.00,2013-04-21 09:38:00,
2013-04-21 04:44:00,32.2,29.6,30.38,SSW,205,0.0,0.0,90,0.00,,---,0.00,VWS V14.00,2013-04-21 09:44:00,
2013-04-21 04:49:00,32.2,29.6,30.38,SSW,205,0.0,0.0,90,0.00,,---,0.00,VWS V14.00,2013-04-21 09:49:00,
2013-04-21 04:54:00,32.2,29.6,30.38,SSW,205,0.0,0.0,90,0.00,,---,0.00,VWS V14.00,2013-04-21 09:54:00,
2013-04-21 04:59:00,32.8,30.2,30.38,SSW,202,3.0,3.0,90,0.00,,---,0.00,VWS V14.00,2013-04-21 09:59:00,
2013-04-21 05:04:00,32.9,31.1,30.39,SSW,202,2.0,3.0,93,0.00,,---,0.00,VWS V14.00,2013-04-21 10:04:00,
2013-04-21 05:09:00,32.9,30.3,30.39,SSW,198,1.0,2.0,90,0.00,,---,0.00,VWS V14.00,2013-04-21 10:09:00,
2013-04-21 05:14:00,33.1,30.5,30.39,SSW,196,2.0,3.0,90,0.00,,---,0.00,VWS V14.00,2013-04-21 10:14:00,
2013-04-21 05:19:00,33.1,30.8,30.40,SSW,192,2.0,5.0,91,0.00,,---,0.00,VWS V14.00,2013-04-21 10:19:00,
2013-04-21 05:24:00,33.2,30.6,30.40,SE,128,7.0,7.0,90,0.00,,---,0.00,VWS V14.00,2013-04-21 10:24:00,
2013-04-21 05:30:00,33.5,30.6,30.40,ESE,109,5.0,11.0,89,0.00,,---,0.00,VWS V14.00,2013-04-21 10:30:00,
2013-04-21 05:35:00,33.7,30.8,30.40,ESE,106,5.0,10.0,89,0.00,,---,0.00,VWS V14.00,2013-04-21 10:35:00,
2013-04-21 05:40:00,33.8,30.6,30.40,ESE,105,3.0,10.0,88,0.00,,---,0.00,VWS V14.00,2013-04-21 10:40:00,
2013-04-21 05:45:00,34.0,30.3,30.40,ESE,105,8.0,11.0,86,0.00,,---,0.00,VWS V14.00,2013-04-21 10:45:00,
2013-04-21 05:50:00,34.3,30.3,30.41,ESE,103,10.0,12.0,85,0.00,,---,0.00,VWS V14.00,2013-04-21 10:50:00,
2013-04-21 05:55:00,34.3,30.0,30.41,ESE,105,9.0,11.0,84,0.00,,---,0.00,VWS V14.00,2013-04-21 10:55:00,
2013-04-21 06:00:00,34.3,30.0,30.41,ESE,104,11.0,11.0,84,0.00,,---,0.00,VWS V14.00,2013-04-21 11:00:00,
2013-04-21 06:05:00,34.4,29.8,30.41,ESE,105,10.0,10.0,83,0.00,,---,0.00,VWS V14.00,2013-04-21 11:05:00,
2013-04-21 06:10:00,34.4,29.8,30.41,ESE,105,10.0,10.0,83,0.00,,---,0.00,VWS V14.00,2013-04-21 11:10:00,
2013-04-21 06:16:00,34.6,29.4,30.41,ESE,108,9.0,11.0,81,0.00,,---,0.00,VWS V14.00,2013-04-21 11:16:00,
2013-04-21 06:21:00,34.6,29.4,30.42,ESE,104,10.0,11.0,81,0.00,,---,0.00,VWS V14.00,2013-04-21 11:21:00,
2013-04-21 06:26:00,34.7,29.5,30.42,ESE,105,12.0,12.0,81,0.00,,---,0.00,VWS V14.00,2013-04-21 11:26:00,
2013-04-21 06:31:00,34.7,29.5,30.42,ESE,104,10.0,11.0,81,0.00,,---,0.00,VWS V14.00,2013-04-21 11:31:00,
2013-04-21 06:36:00,34.9,29.4,30.43,ESE,103,9.0,11.0,80,0.00,,---,0.00,VWS V14.00,2013-04-21 11:36:00,
2013-04-21 06:41:00,34.9,29.4,30.43,ESE,104,10.0,12.0,80,0.00,,---,0.00,VWS V14.00,2013-04-21 11:41:00,
2013-04-21 06:46:00,35.0,29.5,30.43,ESE,103,12.0,13.0,80,0.00,,---,0.00,VWS V14.00,2013-04-21 11:46:00,
2013-04-21 06:51:00,35.0,29.5,30.43,ESE,107,10.0,13.0,80,0.00,,---,0.00,VWS V14.00,2013-04-21 11:51:00,
2013-04-21 06:56:00,35.2,29.7,30.43,ESE,110,9.0,12.0,80,0.00,,---,0.00,VWS V14.00,2013-04-21 11:56:00,
2013-04-21 07:01:00,35.3,29.8,30.43,ESE,111,10.0,14.0,80,0.00,,---,0.00,VWS V14.00,2013-04-21 12:01:00,
2013-04-21 07:06:00,35.5,29.6,30.44,ESE,110,10.0,14.0,79,0.00,,---,0.00,VWS V14.00,2013-04-21 12:06:00,
2013-04-21 07:11:00,35.8,29.9,30.44,ESE,112,11.0,14.0,79,0.00,,---,0.00,VWS V14.00,2013-04-21 12:11:00,
2013-04-21 07:17:00,35.9,30.0,30.44,ESE,115,13.0,16.0,79,0.00,,---,0.00,VWS V14.00,2013-04-21 12:17:00,
2013-04-21 07:22:00,36.0,29.8,30.44,ESE,120,12.0,15.0,78,0.00,,---,0.00,VWS V14.00,2013-04-21 12:22:00,
2013-04-21 07:27:00,36.0,29.8,30.44,ESE,107,13.0,13.0,78,0.00,,---,0.00,VWS V14.00,2013-04-21 12:27:00,
2013-04-21 07:32:00,36.2,29.7,30.44,ESE,111,18.0,18.0,77,0.00,,---,0.00,VWS V14.00,2013-04-21 12:32:00,
2013-04-21 07:37:00,36.3,29.5,30.44,ESE,119,16.0,20.0,76,0.00,,---,0.00,VWS V14.00,2013-04-21 12:37:00,
2013-04-21 07:42:00,36.5,29.7,30.44,ESE,112,16.0,16.0,76,0.00,,---,0.00,VWS V14.00,2013-04-21 12:42:00,
2013-04-21 07:47:00,36.8,30.3,30.45,ESE,112,11.0,14.0,77,0.00,,---,0.00,VWS V14.00,2013-04-21 12:47:00,
2013-04-21 07:52:00,36.9,30.4,30.45,ESE,111,11.0,15.0,77,0.00,,---,0.00,VWS V14.00,2013-04-21 12:52:00,
2013-04-21 07:57:00,37.0,30.1,30.45,ESE,114,13.0,16.0,76,0.00,,---,0.00,VWS V14.00,2013-04-21 12:57:00,
2013-04-21 08:03:00,37.3,30.1,30.45,ESE,104,14.0,17.0,75,0.00,,---,0.00,VWS V14.00,2013-04-21 13:03:00,
2013-04-21 08:08:00,37.6,30.4,30.45,ESE,115,16.0,16.0,75,0.00,,---,0.00,VWS V14.00,2013-04-21 13:08:00,
2013-04-21 08:13:00,37.6,30.1,30.45,ESE,115,13.0,17.0,74,0.00,,---,0.00,VWS V14.00,2013-04-21 13:13:00,
2013-04-21 08:18:00,37.9,30.4,30.45,ESE,119,14.0,18.0,74,0.00,,---,0.00,VWS V14.00,2013-04-21 13:18:00,
2013-04-21 08:23:00,38.0,30.1,30.45,ESE,116,15.0,18.0,73,0.00,,---,0.00,VWS V14.00,2013-04-21 13:23:00,
2013-04-21 08:28:00,38.3,31.1,30.45,ESE,115,11.0,16.0,75,0.00,,---,0.00,VWS V14.00,2013-04-21 13:28:00,
2013-04-21 08:33:00,38.6,31.0,30.45,ESE,120,13.0,17.0,74,0.00,,---,0.00,VWS V14.00,2013-04-21 13:33:00,
2013-04-21 08:38:00,39.1,31.2,30.45,ESE,111,15.0,18.0,73,0.00,,---,0.00,VWS V14.00,2013-04-21 13:38:00,
2013-04-21 08:43:00,39.1,31.2,30.45,ESE,109,15.0,19.0,73,0.00,,---,0.00,VWS V14.00,2013-04-21 13:43:00,
2013-04-21 08:48:00,39.1,30.9,30.45,ESE,107,16.0,16.0,72,0.00,,---,0.00,VWS V14.00,2013-04-21 13:48:00,
2013-04-21 08:53:00,39.2,30.6,30.45,ESE,120,16.0,18.0,71,0.00,,---,0.00,VWS V14.00,2013-04-21 13:53:00,
2013-04-21 08:59:00,39.8,31.9,30.45,ESE,118,16.0,16.0,73,0.00,,---,0.00,VWS V14.00,2013-04-21 13:59:00,
2013-04-21 09:04:00,40.1,32.2,30.45,ESE,115,17.0,17.0,73,0.00,,---,0.00,VWS V14.00,2013-04-21 14:04:00,
2013-04-21 09:09:00,40.3,31.7,30.45,ESE,115,17.0,17.0,71,0.00,,---,0.00,VWS V14.00,2013-04-21 14:09:00,
2013-04-21 09:14:00,40.8,32.8,30.45,ESE,117,16.0,17.0,73,0.00,,---,0.00,VWS V14.00,2013-04-21 14:14:00,
2013-04-21 09:19:00,41.3,33.3,30.45,ESE,104,13.0,15.0,73,0.00,,---,0.00,VWS V14.00,2013-04-21 14:19:00,
2013-04-21 09:24:00,41.5,33.5,30.45,ESE,117,15.0,15.0,73,0.00,,---,0.00,VWS V14.00,2013-04-21 14:24:00,
2013-04-21 09:29:00,41.6,32.6,30.45,ESE,106,16.0,18.0,70,0.00,,---,0.00,VWS V14.00,2013-04-21 14:29:00,
2013-04-21 09:34:00,41.5,32.8,30.45,ESE,109,17.0,17.0,71,0.00,,---,0.00,VWS V14.00,2013-04-21 14:34:00,
2013-04-21 09:39:00,41.5,32.8,30.45,ESE,109,17.0,17.0,71,0.00,,---,0.00,VWS V14.00,2013-04-21 14:39:00,
2013-04-21 09:44:00,42.3,32.5,30.45,ESE,114,17.0,19.0,68,0.00,,---,0.00,VWS V14.00,2013-04-21 14:44:00,
2013-04-21 09:49:00,42.8,34.1,30.44,ESE,113,16.0,18.0,71,0.00,,---,0.00,VWS V14.00,2013-04-21 14:49:00,
2013-04-21 09:55:00,42.9,33.1,30.44,ESE,116,16.0,16.0,68,0.00,,---,0.00,VWS V14.00,2013-04-21 14:55:00,
2013-04-21 10:00:00,43.3,34.2,30.44,ESE,123,23.0,23.0,70,0.00,,---,0.00,VWS V14.00,2013-04-21 15:00:00,
2013-04-21 10:05:00,43.6,34.8,30.44,ESE,111,15.0,19.0,71,0.00,,---,0.00,VWS V14.00,2013-04-21 15:05:00,
2013-04-21 10:10:00,43.6,33.8,30.44,ESE,110,15.0,20.0,68,0.00,,---,0.00,VWS V14.00,2013-04-21 15:10:00,
2013-04-21 10:15:00,43.8,33.9,30.44,ESE,114,18.0,19.0,68,0.00,,---,0.00,VWS V14.00,2013-04-21 15:15:00,
2013-04-21 10:20:00,43.6,33.4,30.44,SE,124,18.0,20.0,67,0.00,,---,0.00,VWS V14.00,2013-04-21 15:20:00,
2013-04-21 10:25:00,44.3,35.2,30.44,SE,124,17.0,20.0,70,0.00,,---,0.00,VWS V14.00,2013-04-21 15:25:00,
2013-04-21 10:30:00,44.2,34.0,30.44,ESE,115,16.0,16.0,67,0.00,,---,0.00,VWS V14.00,2013-04-21 15:30:00,
2013-04-21 10:35:00,44.3,34.4,30.44,East,101,15.0,19.0,68,0.00,,---,0.00,VWS V14.00,2013-04-21 15:35:00,
2013-04-21 10:41:00,44.3,33.7,30.44,ESE,109,18.0,19.0,66,0.00,,---,0.00,VWS V14.00,2013-04-21 15:41:00,
2013-04-21 10:46:00,44.9,33.9,30.44,ESE,123,15.0,18.0,65,0.00,,---,0.00,VWS V14.00,2013-04-21 15:46:00,
2013-04-21 10:51:00,45.4,35.5,30.44,ESE,108,15.0,18.0,68,0.00,,---,0.00,VWS V14.00,2013-04-21 15:51:00,
2013-04-21 10:56:00,45.8,36.2,30.44,ESE,117,13.0,13.0,69,0.00,,---,0.00,VWS V14.00,2013-04-21 15:56:00,
2013-04-21 11:01:00,45.7,34.2,30.44,SE,130,19.0,19.0,64,0.00,,---,0.00,VWS V14.00,2013-04-21 16:01:00,
2013-04-21 11:06:00,45.7,34.2,30.43,SE,130,19.0,19.0,64,0.00,,---,0.00,VWS V14.00,2013-04-21 16:06:00,
2013-04-21 11:11:00,45.7,34.2,30.43,SE,130,19.0,19.0,64,0.00,,---,0.00,VWS V14.00,2013-04-21 16:11:00,
2013-04-21 11:16:00,45.7,34.2,30.43,SE,130,19.0,19.0,64,0.00,,---,0.00,VWS V14.00,2013-04-21 16:16:00,
2013-04-21 11:21:00,45.7,34.2,30.44,SE,130,19.0,19.0,64,0.00,,---,0.00,VWS V14.00,2013-04-21 16:21:00,
2013-04-21 11:26:00,46.8,35.7,30.44,ESE,108,13.0,16.0,65,0.00,,---,0.00,VWS V14.00,2013-04-21 16:26:00,
2013-04-21 11:32:00,46.8,35.7,30.44,ESE,123,14.0,21.0,65,0.00,,---,0.00,VWS V14.00,2013-04-21 16:32:00,
2013-04-21 11:37:00,47.3,36.2,30.43,SE,128,17.0,19.0,65,0.00,,---,0.00,VWS V14.00,2013-04-21 16:37:00,
2013-04-21 11:42:00,47.4,35.8,30.43,ESE,112,16.0,17.0,64,0.00,,---,0.00,VWS V14.00,2013-04-21 16:42:00,
2013-04-21 11:47:00,48.2,38.9,30.43,SE,128,16.0,16.0,70,0.00,,---,0.00,VWS V14.00,2013-04-21 16:47:00,
2013-04-21 11:52:00,48.2,37.4,30.42,ESE,107,15.0,18.0,66,0.00,,---,0.00,VWS V14.00,2013-04-21 16:52:00,
2013-04-21 11:57:00,48.2,37.8,30.42,ESE,108,15.0,19.0,67,0.00,,---,0.00,VWS V14.00,2013-04-21 16:57:00,
2013-04-21 12:02:00,48.3,37.1,30.41,ESE,120,14.0,17.0,65,0.00,,---,0.00,VWS V14.00,2013-04-21 17:02:00,
2013-04-21 12:07:00,48.9,38.8,30.41,ESE,105,15.0,15.0,68,0.00,,---,0.00,VWS V14.00,2013-04-21 17:07:00,
2013-04-21 12:12:00,49.1,39.8,30.41,ESE,114,15.0,16.0,70,0.00,,---,0.00,VWS V14.00,2013-04-21 17:12:00,
2013-04-21 12:17:00,49.6,39.9,30.41,SE,132,14.0,20.0,69,0.00,,---,0.00,VWS V14.00,2013-04-21 17:17:00,
2013-04-21 12:22:00,49.1,36.2,30.41,SE,129,16.0,17.0,61,0.00,,---,0.00,VWS V14.00,2013-04-21 17:22:00,
2013-04-21 12:28:00,49.4,38.1,30.41,ESE,115,17.0,18.0,65,0.00,,---,0.00,VWS V14.00,2013-04-21 17:28:00,
2013-04-21 12:33:00,50.1,39.6,30.40,SE,140,15.0,17.0,67,0.00,,---,0.00,VWS V14.00,2013-04-21 17:33:00,
2013-04-21 12:38:00,49.6,37.5,30.40,ESE,117,16.0,18.0,63,0.00,,---,0.00,VWS V14.00,2013-04-21 17:38:00,
2013-04-21 12:43:00,49.8,37.3,30.40,SE,134,16.0,20.0,62,0.00,,---,0.00,VWS V14.00,2013-04-21 17:43:00,
2013-04-21 12:48:00,50.5,40.0,30.39,SE,125,18.0,18.0,67,0.00,,---,0.00,VWS V14.00,2013-04-21 17:48:00,
2013-04-21 12:53:00,50.5,39.2,30.39,SE,135,15.0,19.0,65,0.00,,---,0.00,VWS V14.00,2013-04-21 17:53:00,
2013-04-21 12:58:00,50.4,38.7,30.39,SE,132,15.0,18.0,64,0.00,,---,0.00,VWS V14.00,2013-04-21 17:58:00,
2013-04-21 13:03:00,50.4,37.5,30.39,ESE,109,14.0,14.0,61,0.00,,---,0.00,VWS V14.00,2013-04-21 18:03:00,
2013-04-21 13:09:00,50.8,38.3,30.39,SE,142,17.0,19.0,62,0.00,,---,0.00,VWS V14.00,2013-04-21 18:09:00,
2013-04-21 13:14:00,50.7,37.3,30.39,ESE,123,13.0,16.0,60,0.00,,---,0.00,VWS V14.00,2013-04-21 18:14:00,
2013-04-21 13:19:00,51.1,39.8,30.38,ESE,118,15.0,18.0,65,0.00,,---,0.00,VWS V14.00,2013-04-21 18:19:00,
2013-04-21 13:24:00,51.4,39.2,30.38,ESE,118,12.0,17.0,63,0.00,,---,0.00,VWS V14.00,2013-04-21 18:24:00,
2013-04-21 13:29:00,51.1,39.4,30.38,ESE,121,9.0,14.0,64,0.00,,---,0.00,VWS V14.00,2013-04-21 18:29:00,
2013-04-21 13:34:00,51.3,37.9,30.37,SE,127,13.0,18.0,60,0.00,,---,0.00,VWS V14.00,2013-04-21 18:34:00,
2013-04-21 13:39:00,51.1,37.3,30.37,ESE,115,18.0,18.0,59,0.00,,---,0.00,VWS V14.00,2013-04-21 18:39:00,
2013-04-21 13:44:00,51.9,40.1,30.37,ESE,123,12.0,16.0,64,0.00,,---,0.00,VWS V14.00,2013-04-21 18:44:00,
2013-04-21 13:49:00,52.0,39.0,30.36,ESE,108,17.0,21.0,61,0.00,,---,0.00,VWS V14.00,2013-04-21 18:49:00,
2013-04-21 13:55:00,52.0,38.6,30.36,ESE,117,19.0,19.0,60,0.00,,---,0.00,VWS V14.00,2013-04-21 18:55:00,
2013-04-21 14:00:00,52.2,40.0,30.36,ESE,121,15.0,19.0,63,0.00,,---,0.00,VWS V14.00,2013-04-21 19:00:00,
2013-04-21 14:05:00,52.2,39.6,30.36,ESE,120,13.0,13.0,62,0.00,,---,0.00,VWS V14.00,2013-04-21 19:05:00,
2013-04-21 14:10:00,52.3,39.3,30.36,ESE,105,14.0,19.0,61,0.00,,---,0.00,VWS V14.00,2013-04-21 19:10:00,
2013-04-21 14:15:00,52.3,40.5,30.36,SE,127,16.0,19.0,64,0.00,,---,0.00,VWS V14.00,2013-04-21 19:15:00,
2013-04-21 14:20:00,52.6,39.1,30.36,ESE,113,15.0,20.0,60,0.00,,---,0.00,VWS V14.00,2013-04-21 19:20:00,
2013-04-21 14:25:00,52.5,39.0,30.36,ESE,113,11.0,20.0,60,0.00,,---,0.00,VWS V14.00,2013-04-21 19:25:00,
2013-04-21 14:30:00,52.6,38.3,30.36,ESE,105,16.0,16.0,58,0.00,,---,0.00,VWS V14.00,2013-04-21 19:30:00,
2013-04-21 14:35:00,52.8,39.7,30.35,ESE,109,17.0,17.0,61,0.00,,---,0.00,VWS V14.00,2013-04-21 19:35:00,
2013-04-21 14:40:00,53.2,41.3,30.35,SE,133,15.0,16.0,64,0.00,,---,0.00,VWS V14.00,2013-04-21 19:40:00,
2013-04-21 14:45:00,53.1,40.0,30.35,ESE,118,14.0,17.0,61,0.00,,---,0.00,VWS V14.00,2013-04-21 19:45:00,
2013-04-21 14:51:00,53.2,39.7,30.34,ESE,123,14.0,15.0,60,0.00,,---,0.00,VWS V14.00,2013-04-21 19:51:00,
2013-04-21 14:56:00,53.6,41.3,30.34,SE,130,15.0,19.0,63,0.00,,---,0.00,VWS V14.00,2013-04-21 19:56:00,
2013-04-21 15:01:00,53.5,41.2,30.34,SE,132,15.0,15.0,63,0.00,,---,0.00,VWS V14.00,2013-04-21 20:01:00,
2013-04-21 15:06:00,53.3,40.6,30.34,ESE,117,12.0,20.0,62,0.00,,---,0.00,VWS V14.00,2013-04-21 20:06:00,
2013-04-21 15:11:00,53.6,40.1,30.34,ESE,115,16.0,16.0,60,0.00,,---,0.00,VWS V14.00,2013-04-21 20:11:00,
2013-04-21 15:16:00,53.3,39.8,30.34,ESE,105,12.0,14.0,60,0.00,,---,0.00,VWS V14.00,2013-04-21 20:16:00,
2013-04-21 15:21:00,53.6,40.1,30.33,SE,132,11.0,16.0,60,0.00,,---,0.00,VWS V14.00,2013-04-21 20:21:00,
2013-04-21 15:26:00,53.9,40.8,30.33,SE,126,14.0,16.0,61,0.00,,---,0.00,VWS V14.00,2013-04-21 20:26:00,
2013-04-21 15:31:00,53.8,39.8,30.33,SE,140,13.0,13.0,59,0.00,,---,0.00,VWS V14.00,2013-04-21 20:31:00,
2013-04-21 15:37:00,54.1,40.5,30.33,ESE,121,12.0,17.0,60,0.00,,---,0.00,VWS V14.00,2013-04-21 20:37:00,
2013-04-21 15:42:00,53.9,40.8,30.33,ESE,108,14.0,18.0,61,0.00,,---,0.00,VWS V14.00,2013-04-21 20:42:00,
2013-04-21 15:47:00,53.9,39.9,30.33,SE,124,12.0,16.0,59,0.00,,---,0.00,VWS V14.00,2013-04-21 20:47:00,
2013-04-21 15:52:00,54.1,40.5,30.32,SE,129,14.0,19.0,60,0.00,,---,0.00,VWS V14.00,2013-04-21 20:52:00,
2013-04-21 15:57:00,54.1,40.1,30.32,East,98,7.0,12.0,59,0.00,,---,0.00,VWS V14.00,2013-04-21 20:57:00,
2013-04-21 16:02:00,54.4,41.2,30.32,ESE,122,13.0,16.0,61,0.00,,---,0.00,VWS V14.00,2013-04-21 21:02:00,
2013-04-21 16:07:00,54.4,40.8,30.31,SE,132,13.0,16.0,60,0.00,,---,0.00,VWS V14.00,2013-04-21 21:07:00,
2013-04-21 16:12:00,54.5,40.9,30.31,SE,129,15.0,15.0,60,0.00,,---,0.00,VWS V14.00,2013-04-21 21:12:00,
2013-04-21 16:17:00,54.2,39.3,30.31,SE,132,18.0,18.0,57,0.00,,---,0.00,VWS V14.00,2013-04-21 21:17:00,
2013-04-21 16:22:00,54.4,40.4,30.31,ESE,118,19.0,19.0,59,0.00,,---,0.00,VWS V14.00,2013-04-21 21:22:00,
2013-04-21 16:27:00,54.4,40.4,30.31,SE,131,15.0,17.0,59,0.00,,---,0.00,VWS V14.00,2013-04-21 21:27:00,
2013-04-21 16:33:00,54.4,39.5,30.31,SE,135,15.0,16.0,57,0.00,,---,0.00,VWS V14.00,2013-04-21 21:33:00,
2013-04-21 16:38:00,54.5,40.5,30.31,ESE,122,13.0,16.0,59,0.00,,---,0.00,VWS V14.00,2013-04-21 21:38:00,
2013-04-21 16:43:00,54.2,39.8,30.31,SE,134,10.0,16.0,58,0.00,,---,0.00,VWS V14.00,2013-04-21 21:43:00,
2013-04-21 16:48:00,54.2,39.3,30.30,ESE,111,14.0,16.0,57,0.00,,---,0.00,VWS V14.00,2013-04-21 21:48:00,
2013-04-21 16:53:00,54.2,39.3,30.30,ESE,111,14.0,14.0,57,0.00,,---,0.00,VWS V14.00,2013-04-21 21:53:00,
2013-04-21 16:58:00,54.4,38.6,30.30,ESE,121,15.0,16.0,55,0.00,,---,0.00,VWS V14.00,2013-04-21 21:58:00,
2013-04-21 17:03:00,54.4,39.0,30.30,East,101,15.0,16.0,56,0.00,,---,0.00,VWS V14.00,2013-04-21 22:03:00,
2013-04-21 17:08:00,54.2,40.2,30.30,ESE,122,9.0,14.0,59,0.00,,---,0.00,VWS V14.00,2013-04-21 22:08:00,
2013-04-21 17:13:00,54.4,40.4,30.30,ESE,117,15.0,15.0,59,0.00,,---,0.00,VWS V14.00,2013-04-21 22:13:00,
2013-04-21 17:18:00,54.4,39.5,30.29,SE,126,15.0,17.0,57,0.00,,---,0.00,VWS V14.00,2013-04-21 22:18:00,
2013-04-21 17:23:00,54.2,39.3,30.29,ESE,109,14.0,15.0,57,0.00,,---,0.00,VWS V14.00,2013-04-21 22:23:00,
2013-04-21 17:28:00,54.1,38.8,30.29,ESE,117,13.0,14.0,56,0.00,,---,0.00,VWS V14.00,2013-04-21 22:28:00,
2013-04-21 17:33:00,54.1,40.1,30.29,ESE,116,15.0,15.0,59,0.00,,---,0.00,VWS V14.00,2013-04-21 22:33:00,
2013-04-21 17:39:00,53.8,38.5,30.29,ESE,122,14.0,19.0,56,0.00,,---,0.00,VWS V14.00,2013-04-21 22:39:00,
2013-04-21 17:44:00,53.6,38.3,30.29,ESE,115,15.0,16.0,56,0.00,,---,0.00,VWS V14.00,2013-04-21 22:44:00,
2013-04-21 17:49:00,53.8,40.3,30.29,ESE,113,15.0,16.0,60,0.00,,---,0.00,VWS V14.00,2013-04-21 22:49:00,
2013-04-21 17:54:00,53.6,39.6,30.29,ESE,121,14.0,16.0,59,0.00,,---,0.00,VWS V14.00,2013-04-21 22:54:00,
2013-04-21 17:59:00,53.5,40.0,30.29,ESE,112,12.0,15.0,60,0.00,,---,0.00,VWS V14.00,2013-04-21 22:59:00,
2013-04-21 18:04:00,53.3,39.8,30.29,ESE,109,14.0,16.0,60,0.00,,---,0.00,VWS V14.00,2013-04-21 23:04:00,
2013-04-21 18:09:00,53.1,40.0,30.29,ESE,111,14.0,16.0,61,0.00,,---,0.00,VWS V14.00,2013-04-21 23:09:00,
2013-04-21 18:14:00,52.9,39.8,30.29,ESE,113,13.0,16.0,61,0.00,,---,0.00,VWS V14.00,2013-04-21 23:14:00,
2013-04-21 18:19:00,52.9,39.4,30.29,ESE,115,14.0,17.0,60,0.00,,---,0.00,VWS V14.00,2013-04-21 23:19:00,
2013-04-21 18:24:00,52.8,39.7,30.29,ESE,105,13.0,13.0,61,0.00,,---,0.00,VWS V14.00,2013-04-21 23:24:00,
2013-04-21 18:29:00,52.5,39.0,30.29,ESE,111,13.0,15.0,60,0.00,,---,0.00,VWS V14.00,2013-04-21 23:29:00,
2013-04-21 18:34:00,52.3,38.8,30.29,ESE,112,11.0,11.0,60,0.00,,---,0.00,VWS V14.00,2013-04-21 23:34:00,
2013-04-21 18:40:00,52.2,40.0,30.29,ESE,111,11.0,13.0,63,0.00,,---,0.00,VWS V14.00,2013-04-21 23:40:00,
2013-04-21 18:45:00,52.0,39.8,30.29,ESE,107,11.0,14.0,63,0.00,,---,0.00,VWS V14.00,2013-04-21 23:45:00,
2013-04-21 18:50:00,51.7,39.5,30.29,ESE,112,11.0,13.0,63,0.00,,---,0.00,VWS V14.00,2013-04-21 23:50:00,
2013-04-21 18:55:00,51.6,40.2,30.29,ESE,111,11.0,11.0,65,0.00,,---,0.00,VWS V14.00,2013-04-21 23:55:00,
2013-04-21 19:00:00,51.3,40.3,30.29,ESE,113,10.0,12.0,66,0.00,,---,0.00,VWS V14.00,2013-04-22 00:00:00,
2013-04-21 19:05:00,51.0,40.4,30.29,ESE,111,10.0,10.0,67,0.00,,---,0.00,VWS V14.00,2013-04-22 00:05:00,
2013-04-21 19:10:00,50.7,40.2,30.29,ESE,109,7.0,10.0,67,0.00,,---,0.00,VWS V14.00,2013-04-22 00:10:00,
2013-04-21 19:15:00,50.5,40.0,30.29,ESE,107,8.0,10.0,67,0.00,,---,0.00,VWS V14.00,2013-04-22 00:15:00,
2013-04-21 19:20:00,50.2,39.7,30.29,ESE,107,7.0,10.0,67,0.00,,---,0.00,VWS V14.00,2013-04-22 00:20:00,
2013-04-21 19:25:00,49.9,39.4,30.29,ESE,106,9.0,10.0,67,0.00,,---,0.00,VWS V14.00,2013-04-22 00:25:00,
2013-04-21 19:31:00,49.6,39.5,30.29,ESE,107,6.0,7.0,68,0.00,,---,0.00,VWS V14.00,2013-04-22 00:31:00,
2013-04-21 19:36:00,49.4,39.7,30.29,ESE,107,6.0,7.0,69,0.00,,---,0.00,VWS V14.00,2013-04-22 00:36:00,
2013-04-21 19:41:00,48.9,39.6,30.29,ESE,107,6.0,7.0,70,0.00,,---,0.00,VWS V14.00,2013-04-22 00:41:00,
2013-04-21 19:46:00,48.3,39.3,30.29,ESE,107,5.0,6.0,71,0.00,,---,0.00,VWS V14.00,2013-04-22 00:46:00,
2013-04-21 19:51:00,47.9,39.3,30.30,ESE,107,5.0,6.0,72,0.00,,---,0.00,VWS V14.00,2013-04-22 00:51:00,
2013-04-21 19:56:00,47.6,39.4,30.30,ESE,107,5.0,6.0,73,0.00,,---,0.00,VWS V14.00,2013-04-22 00:56:00,
2013-04-21 20:01:00,47.6,39.4,30.30,ESE,107,5.0,5.0,73,0.00,,---,0.00,VWS V14.00,2013-04-22 01:01:00,
2013-04-21 20:06:00,47.0,39.2,30.30,ESE,107,4.0,5.0,74,0.00,,---,0.00,VWS V14.00,2013-04-22 01:06:00,
2013-04-21 20:11:00,46.8,39.3,30.30,ESE,107,6.0,6.0,75,0.00,,---,0.00,VWS V14.00,2013-04-22 01:11:00,
2013-04-21 20:16:00,46.7,38.9,30.30,ESE,106,5.0,7.0,74,0.00,,---,0.00,VWS V14.00,2013-04-22 01:16:00,
2013-04-21 20:21:00,46.5,38.7,30.29,ESE,106,5.0,6.0,74,0.00,,---,0.00,VWS V14.00,2013-04-22 01:21:00,
2013-04-21 20:26:00,46.2,38.7,30.29,ESE,105,5.0,6.0,75,0.00,,---,0.00,VWS V14.00,2013-04-22 01:26:00,
2013-04-21 20:32:00,46.2,38.7,30.29,ESE,105,7.0,7.0,75,0.00,,---,0.00,VWS V14.00,2013-04-22 01:32:00,
2013-04-21 20:37:00,46.1,39.0,30.30,ESE,104,7.0,9.0,76,0.00,,---,0.00,VWS V14.00,2013-04-22 01:37:00,
2013-04-21 20:42:00,46.0,38.9,30.30,ESE,104,7.0,9.0,76,0.00,,---,0.00,VWS V14.00,2013-04-22 01:42:00,
2013-04-21 20:47:00,46.0,38.9,30.30,ESE,103,7.0,7.0,76,0.00,,---,0.00,VWS V14.00,2013-04-22 01:47:00,
2013-04-21 20:52:00,45.8,38.7,30.30,ESE,103,5.0,7.0,76,0.00,,---,0.00,VWS V14.00,2013-04-22 01:52:00,
2013-04-21 20:57:00,45.7,38.6,30.30,ESE,103,6.0,7.0,76,0.00,,---,0.00,VWS V14.00,2013-04-22 01:57:00,
2013-04-21 21:02:00,45.5,38.4,30.30,ESE,103,6.0,7.0,76,0.00,,---,0.00,VWS V14.00,2013-04-22 02:02:00,
2013-04-21 21:07:00,45.5,38.4,30.30,ESE,103,5.0,7.0,76,0.00,,---,0.00,VWS V14.00,2013-04-22 02:07:00,
2013-04-21 21:12:00,45.5,38.4,30.30,ESE,103,3.0,6.0,76,0.00,,---,0.00,VWS V14.00,2013-04-22 02:12:00,
2013-04-21 21:17:00,45.4,38.3,30.30,ESE,103,4.0,7.0,76,0.00,,---,0.00,VWS V14.00,2013-04-22 02:17:00,
2013-04-21 21:22:00,45.2,38.1,30.29,ESE,103,4.0,7.0,76,0.00,,---,0.00,VWS V14.00,2013-04-22 02:22:00,
2013-04-21 21:27:00,45.2,38.4,30.29,ESE,103,5.0,7.0,77,0.00,,---,0.00,VWS V14.00,2013-04-22 02:27:00,
2013-04-21 21:32:00,45.1,38.3,30.29,ESE,103,5.0,7.0,77,0.00,,---,0.00,VWS V14.00,2013-04-22 02:32:00,
2013-04-21 21:37:00,44.9,38.1,30.29,ESE,103,6.0,6.0,77,0.00,,---,0.00,VWS V14.00,2013-04-22 02:37:00,
2013-04-21 21:42:00,44.9,38.1,30.29,ESE,103,6.0,6.0,77,0.00,,---,0.00,VWS V14.00,2013-04-22 02:42:00,
2013-04-21 21:47:00,44.8,38.0,30.29,ESE,103,3.0,8.0,77,0.00,,---,0.00,VWS V14.00,2013-04-22 02:47:00,
2013-04-21 21:52:00,44.6,37.8,30.29,ESE,103,5.0,7.0,77,0.00,,---,0.00,VWS V14.00,2013-04-22 02:52:00,
2013-04-21 21:57:00,44.6,37.8,30.29,ESE,103,4.0,6.0,77,0.00,,---,0.00,VWS V14.00,2013-04-22 02:57:00,
2013-04-21 22:02:00,44.5,37.8,30.29,ESE,103,4.0,6.0,77,0.00,,---,0.00,VWS V14.00,2013-04-22 03:02:00,
2013-04-21 22:07:00,44.3,37.6,30.29,ESE,103,5.0,6.0,77,0.00,,---,0.00,VWS V14.00,2013-04-22 03:07:00,
2013-04-21 22:12:00,44.2,37.5,30.29,ESE,103,6.0,6.0,77,0.00,,---,0.00,VWS V14.00,2013-04-22 03:12:00,
2013-04-21 22:18:00,44.1,37.0,30.29,ESE,103,5.0,7.0,76,0.00,,---,0.00,VWS V14.00,2013-04-22 03:18:00,
2013-04-21 22:23:00,44.2,37.1,30.29,ESE,102,5.0,9.0,76,0.00,,---,0.00,VWS V14.00,2013-04-22 03:23:00,
2013-04-21 22:28:00,44.2,36.8,30.29,ESE,102,7.0,7.0,75,0.00,,---,0.00,VWS V14.00,2013-04-22 03:28:00,
2013-04-21 22:33:00,44.1,37.0,30.29,ESE,102,8.0,8.0,76,0.00,,---,0.00,VWS V14.00,2013-04-22 03:33:00,
2013-04-21 22:38:00,44.1,36.7,30.29,ESE,103,6.0,9.0,75,0.00,,---,0.00,VWS V14.00,2013-04-22 03:38:00,
2013-04-21 22:43:00,43.9,36.5,30.29,ESE,102,5.0,7.0,75,0.00,,---,0.00,VWS V14.00,2013-04-22 03:43:00,
2013-04-21 22:48:00,43.9,36.5,30.29,ESE,102,6.0,6.0,75,0.00,,---,0.00,VWS V14.00,2013-04-22 03:48:00,
2013-04-21 22:53:00,43.5,36.1,30.29,ESE,102,3.0,5.0,75,0.00,,---,0.00,VWS V14.00,2013-04-22 03:53:00,
2013-04-21 22:58:00,43.3,35.9,30.29,ESE,102,2.0,4.0,75,0.00,,---,0.00,VWS V14.00,2013-04-22 03:58:00,
2013-04-21 23:01:00,43.2,35.8,30.29,ESE,102,3.0,4.0,75,0.00,,---,0.00,VWS V14.00,2013-04-22 04:01:00,
2013-04-21 23:02:00,43.2,36.2,30.29,ESE,102,2.0,4.0,76,0.00,,---,0.00,VWS V14.00,2013-04-22 04:02:00,
2013-04-21 23:07:00,43.1,36.1,30.29,ESE,102,5.0,6.0,76,0.00,,---,0.00,VWS V14.00,2013-04-22 04:07:00,
2013-04-21 23:12:00,43.2,36.2,30.29,ESE,102,6.0,7.0,76,0.00,,---,0.00,VWS V14.00,2013-04-22 04:12:00,
2013-04-21 23:17:00,43.2,35.8,30.29,ESE,102,4.0,7.0,75,0.00,,---,0.00,VWS V14.00,2013-04-22 04:17:00,
2013-04-21 23:22:00,43.3,35.9,30.28,ESE,102,6.0,7.0,75,0.00,,---,0.00,VWS V14.00,2013-04-22 04:22:00,
2013-04-21 23:27:00,43.3,35.6,30.28,East,101,7.0,8.0,74,0.00,,---,0.00,VWS V14.00,2013-04-22 04:27:00,
2013-04-21 23:32:00,43.5,35.8,30.28,East,101,3.0,6.0,74,0.00,,---,0.00,VWS V14.00,2013-04-22 04:32:00,
2013-04-21 23:37:00,43.5,35.8,30.28,East,101,5.0,6.0,74,0.00,,---,0.00,VWS V14.00,2013-04-22 04:37:00,
2013-04-21 23:42:00,43.6,35.9,30.28,East,101,7.0,7.0,74,0.00,,---,0.00,VWS V14.00,2013-04-22 04:42:00,
2013-04-21 23:47:00,43.6,35.5,30.27,East,101,5.0,6.0,73,0.00,,---,0.00,VWS V14.00,2013-04-22 04:47:00,
2013-04-21 23:53:00,43.6,35.5,30.27,East,101,7.0,7.0,73,0.00,,---,0.00,VWS V14.00,2013-04-22 04:53:00,
2013-04-21 23:58:00,43.8,35.7,30.27,East,101,7.0,7.0,73,0.00,,---,0.00,VWS V14.00,2013-04-22 04:58:00,